sensor_id;sensor_type;location;lat;lon;timestamp;pressure;altitude;pressure_sealevel;temperature;humidity
75549;BME280;64133;56.002;37.208;2022-11-14T00:03:40;99510.88;;;1.26;76.02
75549;BME280;64133;56.002;37.208;2022-11-14T00:08:45;99507.48;;;0.71;79.60
75549;BME280;64133;56.002;37.208;2022-11-14T00:13:50;99523.23;;;0.77;81.06
75549;BME280;64133;56.002;37.208;2022-11-14T00:18:55;99533.67;;;0.54;81.12
75549;BME280;64133;56.002;37.208;2022-11-14T00:24:00;99528.39;;;0.79;81.28
75549;BME280;64133;56.002;37.208;2022-11-14T00:29:05;99527.67;;;0.63;81.32
75549;BME280;64133;56.002;37.208;2022-11-14T00:34:10;99535.25;;;0.46;81.57
75549;BME280;64133;56.002;37.208;2022-11-14T00:39:15;99538.37;;;0.44;81.27
75549;BME280;64133;56.002;37.208;2022-11-14T00:44:20;99548.38;;;0.53;81.02
75549;BME280;64133;56.002;37.208;2022-11-14T00:49:25;99550.89;;;0.66;79.73
75549;BME280;64133;56.002;37.208;2022-11-14T00:54:29;99555.44;;;0.71;78.86
75549;BME280;64133;56.002;37.208;2022-11-14T00:59:34;99555.59;;;0.45;78.92
75549;BME280;64133;56.002;37.208;2022-11-14T01:04:39;99560.45;;;0.64;78.74
75549;BME280;64133;56.002;37.208;2022-11-14T01:09:44;99569.08;;;0.65;78.66
75549;BME280;64133;56.002;37.208;2022-11-14T01:14:49;99574.05;;;0.71;77.86
75549;BME280;64133;56.002;37.208;2022-11-14T01:19:54;99574.89;;;0.60;77.93
75549;BME280;64133;56.002;37.208;2022-11-14T01:24:59;99583.86;;;0.51;77.61
75549;BME280;64133;56.002;37.208;2022-11-14T01:30:04;99583.71;;;0.78;77.21
75549;BME280;64133;56.002;37.208;2022-11-14T01:35:09;99605.09;;;0.61;76.77
75549;BME280;64133;56.002;37.208;2022-11-14T01:40:14;99609.41;;;0.02;78.69
75549;BME280;64133;56.002;37.208;2022-11-14T01:45:45;99615.06;;;0.24;78.73
75549;BME280;64133;56.002;37.208;2022-11-14T01:50:57;99619.69;;;0.28;77.84
75549;BME280;64133;56.002;37.208;2022-11-14T01:55:59;99630.52;;;0.39;77.37
75549;BME280;64133;56.002;37.208;2022-11-14T02:01:04;99640.64;;;0.22;76.70
75549;BME280;64133;56.002;37.208;2022-11-14T02:06:09;99649.71;;;0.22;76.90
75549;BME280;64133;56.002;37.208;2022-11-14T02:11:14;99650.30;;;0.17;76.35
75549;BME280;64133;56.002;37.208;2022-11-14T02:16:18;99654.89;;;0.22;74.95
75549;BME280;64133;56.002;37.208;2022-11-14T02:21:23;99661.20;;;0.27;74.20
75549;BME280;64133;56.002;37.208;2022-11-14T02:26:28;99647.99;;;0.09;71.61
75549;BME280;64133;56.002;37.208;2022-11-14T02:31:33;99654.78;;;0.00;70.74
75549;BME280;64133;56.002;37.208;2022-11-14T02:36:38;99665.14;;;0.00;69.77
75549;BME280;64133;56.002;37.208;2022-11-14T02:41:43;99657.70;;;0.03;69.34
75549;BME280;64133;56.002;37.208;2022-11-14T02:46:48;99661.23;;;0.13;69.46
75549;BME280;64133;56.002;37.208;2022-11-14T02:51:53;99676.06;;;0.08;68.83
75549;BME280;64133;56.002;37.208;2022-11-14T02:56:58;99668.88;;;0.05;68.23
75549;BME280;64133;56.002;37.208;2022-11-14T03:02:03;99674.80;;;0.20;67.89
75549;BME280;64133;56.002;37.208;2022-11-14T03:07:07;99682.28;;;0.16;67.93
75549;BME280;64133;56.002;37.208;2022-11-14T03:12:14;99684.68;;;0.22;67.60
75549;BME280;64133;56.002;37.208;2022-11-14T03:17:18;99689.59;;;0.05;67.49
75549;BME280;64133;56.002;37.208;2022-11-14T03:22:23;99688.89;;;0.24;67.37
75549;BME280;64133;56.002;37.208;2022-11-14T03:27:28;99696.39;;;0.07;67.41
75549;BME280;64133;56.002;37.208;2022-11-14T03:32:33;99701.88;;;-0.02;66.21
75549;BME280;64133;56.002;37.208;2022-11-14T03:37:38;99695.92;;;-0.04;65.63
75549;BME280;64133;56.002;37.208;2022-11-14T03:42:43;99710.25;;;-0.07;65.64
75549;BME280;64133;56.002;37.208;2022-11-14T03:47:48;99718.41;;;-0.06;65.85
75549;BME280;64133;56.002;37.208;2022-11-14T03:52:53;99708.20;;;-0.11;65.60
75549;BME280;64133;56.002;37.208;2022-11-14T03:57:57;99719.41;;;-0.10;65.49
75549;BME280;64133;56.002;37.208;2022-11-14T04:03:02;99714.69;;;-0.11;65.57
75549;BME280;64133;56.002;37.208;2022-11-14T04:08:08;99715.34;;;-0.17;65.51
75549;BME280;64133;56.002;37.208;2022-11-14T04:13:13;99715.52;;;-0.37;65.76
75549;BME280;64133;56.002;37.208;2022-11-14T04:18:18;99730.10;;;-0.47;65.83
75549;BME280;64133;56.002;37.208;2022-11-14T04:23:25;99729.36;;;-0.38;65.61
75549;BME280;64133;56.002;37.208;2022-11-14T04:28:30;99738.71;;;-0.47;66.12
75549;BME280;64133;56.002;37.208;2022-11-14T04:33:35;99748.19;;;-0.61;65.87
75549;BME280;64133;56.002;37.208;2022-11-14T04:38:40;99758.00;;;-0.72;66.12
75549;BME280;64133;56.002;37.208;2022-11-14T04:43:45;99761.33;;;-0.83;66.90
75549;BME280;64133;56.002;37.208;2022-11-14T04:48:50;99775.52;;;-0.67;66.87
75549;BME280;64133;56.002;37.208;2022-11-14T04:53:55;99779.48;;;-0.70;66.97
75549;BME280;64133;56.002;37.208;2022-11-14T04:59:00;99791.58;;;-0.85;67.15
75549;BME280;64133;56.002;37.208;2022-11-14T05:04:05;99798.64;;;-0.92;67.42
75549;BME280;64133;56.002;37.208;2022-11-14T05:09:10;99799.74;;;-1.01;67.27
75549;BME280;64133;56.002;37.208;2022-11-14T05:14:15;99815.58;;;-0.96;67.33
75549;BME280;64133;56.002;37.208;2022-11-14T05:19:20;99814.59;;;-1.07;67.61
75549;BME280;64133;56.002;37.208;2022-11-14T05:24:25;99823.89;;;-1.00;67.48
75549;BME280;64133;56.002;37.208;2022-11-14T05:29:30;99838.11;;;-1.00;67.06
75549;BME280;64133;56.002;37.208;2022-11-14T05:34:35;99848.05;;;-1.17;66.73
75549;BME280;64133;56.002;37.208;2022-11-14T05:39:40;99859.82;;;-1.23;66.89
75549;BME280;64133;56.002;37.208;2022-11-14T05:44:45;99859.58;;;-1.14;67.06
75549;BME280;64133;56.002;37.208;2022-11-14T05:49:50;99863.77;;;-1.27;66.16
75549;BME280;64133;56.002;37.208;2022-11-14T05:54:55;99867.31;;;-1.13;66.05
75549;BME280;64133;56.002;37.208;2022-11-14T06:00:00;99877.02;;;-1.22;65.76
75549;BME280;64133;56.002;37.208;2022-11-14T06:05:05;99882.80;;;-1.29;65.63
75549;BME280;64133;56.002;37.208;2022-11-14T06:10:11;99888.19;;;-1.20;65.65
75549;BME280;64133;56.002;37.208;2022-11-14T06:15:18;99898.56;;;-1.06;65.45
75549;BME280;64133;56.002;37.208;2022-11-14T06:20:24;99899.45;;;-1.07;65.28
75549;BME280;64133;56.002;37.208;2022-11-14T06:25:29;99904.05;;;-1.02;65.15
75549;BME280;64133;56.002;37.208;2022-11-14T06:30:35;99907.38;;;-1.13;65.15
75549;BME280;64133;56.002;37.208;2022-11-14T06:35:41;99904.75;;;7.84;50.19
75549;BME280;64133;56.002;37.208;2022-11-14T06:40:46;99892.61;;;12.16;38.77
75549;BME280;64133;56.002;37.208;2022-11-14T06:45:53;99908.00;;;6.63;42.04
75549;BME280;64133;56.002;37.208;2022-11-14T06:50:58;99927.97;;;1.21;54.96
75549;BME280;64133;56.002;37.208;2022-11-14T06:56:04;99928.62;;;0.49;57.94
75549;BME280;64133;56.002;37.208;2022-11-14T07:01:11;99931.77;;;0.03;59.34
75549;BME280;64133;56.002;37.208;2022-11-14T07:06:16;99931.09;;;-0.18;60.13
75549;BME280;64133;56.002;37.208;2022-11-14T07:11:23;99935.19;;;-0.41;60.66
75549;BME280;64133;56.002;37.208;2022-11-14T07:16:27;99939.36;;;-0.20;61.05
75549;BME280;64133;56.002;37.208;2022-11-14T07:21:33;99942.79;;;-0.05;61.00
75549;BME280;64133;56.002;37.208;2022-11-14T07:26:38;99929.42;;;10.50;41.45
75549;BME280;64133;56.002;37.208;2022-11-14T07:31:43;99929.88;;;14.33;33.77
75549;BME280;64133;56.002;37.208;2022-11-14T07:36:48;99937.02;;;14.67;31.63
75549;BME280;64133;56.002;37.208;2022-11-14T07:41:52;99942.25;;;14.92;31.22
75549;BME280;64133;56.002;37.208;2022-11-14T07:46:57;99950.31;;;15.58;28.56
75549;BME280;64133;56.002;37.208;2022-11-14T07:52:02;99958.24;;;14.77;29.16
75549;BME280;64133;56.002;37.208;2022-11-14T07:57:07;99963.90;;;14.13;29.76
75549;BME280;64133;56.002;37.208;2022-11-14T08:02:13;99962.20;;;15.64;27.79
75549;BME280;64133;56.002;37.208;2022-11-14T08:07:18;99966.58;;;16.30;27.50
75549;BME280;64133;56.002;37.208;2022-11-14T08:12:23;99961.86;;;15.87;25.93
75549;BME280;64133;56.002;37.208;2022-11-14T08:17:28;99963.64;;;15.96;25.46
75549;BME280;64133;56.002;37.208;2022-11-14T08:22:33;99970.26;;;16.61;25.61
75549;BME280;64133;56.002;37.208;2022-11-14T08:27:38;99980.20;;;16.17;26.03
75549;BME280;64133;56.002;37.208;2022-11-14T08:32:43;99982.33;;;15.47;25.21
75549;BME280;64133;56.002;37.208;2022-11-14T08:37:48;99976.61;;;16.36;24.26
75549;BME280;64133;56.002;37.208;2022-11-14T08:42:54;99987.88;;;13.01;26.87
75549;BME280;64133;56.002;37.208;2022-11-14T08:47:57;99978.05;;;7.50;35.84
75549;BME280;64133;56.002;37.208;2022-11-14T08:53:02;99976.39;;;7.26;37.15
75549;BME280;64133;56.002;37.208;2022-11-14T08:58:07;99975.32;;;5.96;38.73
75549;BME280;64133;56.002;37.208;2022-11-14T09:03:12;99983.91;;;6.47;39.18
75549;BME280;64133;56.002;37.208;2022-11-14T09:08:17;99987.97;;;6.37;39.90
75549;BME280;64133;56.002;37.208;2022-11-14T09:13:22;99978.05;;;6.90;39.08
75549;BME280;64133;56.002;37.208;2022-11-14T09:18:27;99981.08;;;6.43;40.29
75549;BME280;64133;56.002;37.208;2022-11-14T09:23:32;99987.00;;;5.30;41.93
75549;BME280;64133;56.002;37.208;2022-11-14T09:28:37;99983.92;;;6.32;41.54
75549;BME280;64133;56.002;37.208;2022-11-14T09:33:42;99978.37;;;4.29;43.32
75549;BME280;64133;56.002;37.208;2022-11-14T09:38:47;99983.48;;;4.69;44.09
75549;BME280;64133;56.002;37.208;2022-11-14T09:54:48;99963.66;;;4.92;43.56
75549;BME280;64133;56.002;37.208;2022-11-14T09:59:52;99973.33;;;5.42;43.62
75549;BME280;64133;56.002;37.208;2022-11-14T10:05:02;99966.63;;;4.29;44.35
75549;BME280;64133;56.002;37.208;2022-11-14T10:10:08;99962.19;;;5.21;43.49
75549;BME280;64133;56.002;37.208;2022-11-14T10:15:17;99962.70;;;4.40;44.41
75549;BME280;64133;56.002;37.208;2022-11-14T10:20:22;99966.94;;;4.51;44.73
75549;BME280;64133;56.002;37.208;2022-11-14T10:25:25;99970.41;;;4.88;43.85
75549;BME280;64133;56.002;37.208;2022-11-14T10:30:33;99966.62;;;4.76;44.86
75549;BME280;64133;56.002;37.208;2022-11-14T10:35:39;99969.37;;;3.49;47.08
75549;BME280;64133;56.002;37.208;2022-11-14T10:40:44;99962.02;;;3.88;46.55
75549;BME280;64133;56.002;37.208;2022-11-14T10:45:49;99964.30;;;3.86;47.22
75549;BME280;64133;56.002;37.208;2022-11-14T10:50:55;99957.56;;;3.51;47.61
75549;BME280;64133;56.002;37.208;2022-11-14T10:55:58;99958.10;;;3.28;47.60
75549;BME280;64133;56.002;37.208;2022-11-14T11:06:52;99952.77;;;3.81;46.19
75549;BME280;64133;56.002;37.208;2022-11-14T11:11:57;99947.85;;;4.13;45.58
75549;BME280;64133;56.002;37.208;2022-11-14T11:17:19;99948.72;;;3.35;47.16
75549;BME280;64133;56.002;37.208;2022-11-14T11:22:34;99944.73;;;3.67;46.19
75549;BME280;64133;56.002;37.208;2022-11-14T11:27:35;99946.03;;;3.67;46.97
75549;BME280;64133;56.002;37.208;2022-11-14T11:32:40;99949.58;;;2.29;48.96
75549;BME280;64133;56.002;37.208;2022-11-14T11:37:47;99947.09;;;2.69;49.45
75549;BME280;64133;56.002;37.208;2022-11-14T11:42:52;99943.77;;;2.88;48.94
75549;BME280;64133;56.002;37.208;2022-11-14T11:48:00;99949.31;;;3.21;49.25
75549;BME280;64133;56.002;37.208;2022-11-14T11:53:06;99949.31;;;3.21;48.74
75549;BME280;64133;56.002;37.208;2022-11-14T11:58:14;99945.67;;;3.15;47.96
75549;BME280;64133;56.002;37.208;2022-11-14T12:03:17;99941.70;;;3.06;47.77
75549;BME280;64133;56.002;37.208;2022-11-14T12:08:23;99947.60;;;2.99;48.42
75549;BME280;64133;56.002;37.208;2022-11-14T12:13:51;99943.65;;;2.69;48.75
75549;BME280;64133;56.002;37.208;2022-11-14T12:19:11;99942.97;;;2.86;48.70
75549;BME280;64133;56.002;37.208;2022-11-14T12:29:51;99952.85;;;2.56;49.95
75549;BME280;64133;56.002;37.208;2022-11-14T12:34:55;99949.84;;;2.66;49.82
75549;BME280;64133;56.002;37.208;2022-11-14T12:40:00;99955.94;;;2.10;50.41
75549;BME280;64133;56.002;37.208;2022-11-14T12:45:13;99948.67;;;1.47;51.90
75549;BME280;64133;56.002;37.208;2022-11-14T12:50:38;99959.70;;;1.29;52.45
75549;BME280;64133;56.002;37.208;2022-11-14T12:55:59;99953.55;;;1.07;53.35
75549;BME280;64133;56.002;37.208;2022-11-14T13:01:07;99950.73;;;0.74;53.85
75549;BME280;64133;56.002;37.208;2022-11-14T13:06:15;99952.32;;;0.65;54.42
75549;BME280;64133;56.002;37.208;2022-11-14T13:11:40;99952.42;;;0.47;55.38
75549;BME280;64133;56.002;37.208;2022-11-14T13:17:15;99959.53;;;0.28;56.06
75549;BME280;64133;56.002;37.208;2022-11-14T13:22:40;99958.68;;;0.12;56.60
75549;BME280;64133;56.002;37.208;2022-11-14T13:27:45;99959.21;;;0.09;56.83
75549;BME280;64133;56.002;37.208;2022-11-14T13:32:54;99950.66;;;0.07;56.98
75549;BME280;64133;56.002;37.208;2022-11-14T13:43:40;99948.63;;;-0.13;58.04
75549;BME280;64133;56.002;37.208;2022-11-14T13:49:18;99950.44;;;-0.30;58.69
75549;BME280;64133;56.002;37.208;2022-11-14T13:54:22;99953.23;;;-0.38;58.73
75549;BME280;64133;56.002;37.208;2022-11-14T13:59:59;99951.09;;;-0.38;59.38
75549;BME280;64133;56.002;37.208;2022-11-14T14:05:07;99948.18;;;-0.42;59.67
75549;BME280;64133;56.002;37.208;2022-11-14T14:10:13;99951.87;;;-0.51;59.91
75549;BME280;64133;56.002;37.208;2022-11-14T14:15:37;99955.30;;;-0.51;60.07
75549;BME280;64133;56.002;37.208;2022-11-14T14:20:43;99943.21;;;-0.66;60.42
75549;BME280;64133;56.002;37.208;2022-11-14T14:25:50;99941.92;;;-0.66;60.77
75549;BME280;64133;56.002;37.208;2022-11-14T14:31:03;99951.92;;;-0.69;60.90
75549;BME280;64133;56.002;37.208;2022-11-14T14:36:18;99953.48;;;-0.80;61.56
75549;BME280;64133;56.002;37.208;2022-11-14T14:41:23;99942.08;;;-0.89;61.26
75549;BME280;64133;56.002;37.208;2022-11-14T14:46:30;99946.99;;;-0.78;61.21
75549;BME280;64133;56.002;37.208;2022-11-14T14:51:35;99950.84;;;-0.62;61.02
75549;BME280;64133;56.002;37.208;2022-11-14T14:56:39;99936.16;;;-0.45;60.67
75549;BME280;64133;56.002;37.208;2022-11-14T15:01:44;99936.36;;;-0.53;60.35
75549;BME280;64133;56.002;37.208;2022-11-14T15:06:52;99942.19;;;-0.44;60.34
75549;BME280;64133;56.002;37.208;2022-11-14T15:11:56;99934.27;;;-0.38;60.27
75549;BME280;64133;56.002;37.208;2022-11-14T15:17:03;99936.16;;;-0.45;60.00
75549;BME280;64133;56.002;37.208;2022-11-14T15:22:23;99930.45;;;-0.41;60.13
75549;BME280;64133;56.002;37.208;2022-11-14T15:27:32;99929.75;;;-0.32;59.81
75549;BME280;64133;56.002;37.208;2022-11-14T15:32:37;99927.72;;;-0.20;59.76
75549;BME280;64133;56.002;37.208;2022-11-14T15:37:42;99930.75;;;-0.21;59.42
75549;BME280;64133;56.002;37.208;2022-11-14T15:42:47;99928.03;;;-0.16;59.33
75549;BME280;64133;56.002;37.208;2022-11-14T15:47:58;99919.55;;;-0.21;59.27
75549;BME280;64133;56.002;37.208;2022-11-14T15:53:03;99919.75;;;-0.14;59.34
75549;BME280;64133;56.002;37.208;2022-11-14T15:58:09;99913.20;;;-0.11;59.25
75549;BME280;64133;56.002;37.208;2022-11-14T16:03:16;99914.27;;;-0.18;59.30
75549;BME280;64133;56.002;37.208;2022-11-14T16:08:20;99923.16;;;-0.12;59.59
75549;BME280;64133;56.002;37.208;2022-11-14T16:13:25;99914.58;;;-0.14;58.95
75549;BME280;64133;56.002;37.208;2022-11-14T16:18:31;99916.41;;;-0.18;58.91
75549;BME280;64133;56.002;37.208;2022-11-14T16:23:36;99920.66;;;-0.15;58.85
75549;BME280;64133;56.002;37.208;2022-11-14T16:28:41;99929.84;;;-0.05;58.74
75549;BME280;64133;56.002;37.208;2022-11-14T16:33:46;99926.23;;;-0.14;58.66
75549;BME280;64133;56.002;37.208;2022-11-14T16:38:51;99919.67;;;-0.11;58.96
75549;BME280;64133;56.002;37.208;2022-11-14T16:43:56;99919.63;;;-0.24;58.59
75549;BME280;64133;56.002;37.208;2022-11-14T16:49:02;99913.28;;;-0.14;58.98
75549;BME280;64133;56.002;37.208;2022-11-14T16:54:08;99904.22;;;-0.14;58.86
75549;BME280;64133;56.002;37.208;2022-11-14T16:59:17;99900.48;;;-0.19;58.71
75549;BME280;64133;56.002;37.208;2022-11-14T17:04:22;99887.34;;;0.02;58.94
75549;BME280;64133;56.002;37.208;2022-11-14T17:09:27;99892.94;;;-0.12;58.43
75549;BME280;64133;56.002;37.208;2022-11-14T17:14:33;99885.56;;;-0.11;58.66
75549;BME280;64133;56.002;37.208;2022-11-14T17:19:38;99883.20;;;-0.04;58.48
75549;BME280;64133;56.002;37.208;2022-11-14T17:24:43;99886.44;;;0.03;58.19
75549;BME280;64133;56.002;37.208;2022-11-14T17:29:48;99882.25;;;-0.01;58.00
75549;BME280;64133;56.002;37.208;2022-11-14T17:34:55;99879.34;;;0.10;57.60
75549;BME280;64133;56.002;37.208;2022-11-14T17:40:00;99875.34;;;0.13;57.61
75549;BME280;64133;56.002;37.208;2022-11-14T17:45:06;99880.66;;;0.08;57.15
75549;BME280;64133;56.002;37.208;2022-11-14T17:50:11;99881.64;;;0.19;57.14
75549;BME280;64133;56.002;37.208;2022-11-14T17:55:19;99885.28;;;0.13;56.49
75549;BME280;64133;56.002;37.208;2022-11-14T18:00:25;99886.16;;;0.12;56.41
75549;BME280;64133;56.002;37.208;2022-11-14T18:05:30;99885.28;;;-0.02;56.23
75549;BME280;64133;56.002;37.208;2022-11-14T18:10:35;99878.84;;;0.12;55.80
75549;BME280;64133;56.002;37.208;2022-11-14T18:15:40;99882.86;;;0.07;55.44
75549;BME280;64133;56.002;37.208;2022-11-14T18:20:45;99878.22;;;0.04;55.36
75549;BME280;64133;56.002;37.208;2022-11-14T18:25:50;99882.24;;;0.14;55.62
75549;BME280;64133;56.002;37.208;2022-11-14T18:30:55;99879.09;;;-0.11;55.49
75549;BME280;64133;56.002;37.208;2022-11-14T18:36:00;99875.30;;;0.01;54.72
75549;BME280;64133;56.002;37.208;2022-11-14T18:41:07;99880.36;;;0.04;54.67
75549;BME280;64133;56.002;37.208;2022-11-14T18:46:11;99878.05;;;0.10;54.70
75549;BME280;64133;56.002;37.208;2022-11-14T18:51:17;99874.91;;;0.00;54.19
75549;BME280;64133;56.002;37.208;2022-11-14T18:56:21;99852.41;;;-0.13;54.14
75549;BME280;64133;56.002;37.208;2022-11-14T19:01:26;99867.78;;;0.07;54.05
75549;BME280;64133;56.002;37.208;2022-11-14T19:06:34;99867.92;;;-0.26;52.79
75549;BME280;64133;56.002;37.208;2022-11-14T19:11:38;99860.32;;;-0.17;53.42
75549;BME280;64133;56.002;37.208;2022-11-14T19:17:00;99852.08;;;-0.02;53.64
75549;BME280;64133;56.002;37.208;2022-11-14T19:22:05;99853.73;;;0.01;53.77
75549;BME280;64133;56.002;37.208;2022-11-14T19:27:10;99853.76;;;-0.01;53.36
75549;BME280;64133;56.002;37.208;2022-11-14T19:32:15;99855.52;;;0.12;53.67
75549;BME280;64133;56.002;37.208;2022-11-14T19:37:20;99831.97;;;0.06;53.46
75549;BME280;64133;56.002;37.208;2022-11-14T19:42:25;99833.17;;;0.09;53.36
75549;BME280;64133;56.002;37.208;2022-11-14T19:47:30;99831.37;;;0.11;53.72
75549;BME280;64133;56.002;37.208;2022-11-14T19:52:35;99835.46;;;0.05;53.85
75549;BME280;64133;56.002;37.208;2022-11-14T19:57:40;99754.31;;;-0.50;54.12
75549;BME280;64133;56.002;37.208;2022-11-14T20:02:46;99831.20;;;-0.11;53.79
75549;BME280;64133;56.002;37.208;2022-11-14T20:07:51;99828.98;;;0.05;54.04
75549;BME280;64133;56.002;37.208;2022-11-14T20:12:59;99829.75;;;-0.06;54.39
75549;BME280;64133;56.002;37.208;2022-11-14T20:18:04;99829.75;;;-0.06;54.17
75549;BME280;64133;56.002;37.208;2022-11-14T20:23:10;99819.75;;;-0.17;54.09
75549;BME280;64133;56.002;37.208;2022-11-14T20:28:18;99817.27;;;0.07;54.50
75549;BME280;64133;56.002;37.208;2022-11-14T20:33:21;99819.08;;;0.05;54.42
75549;BME280;64133;56.002;37.208;2022-11-14T20:38:28;99830.66;;;-0.07;54.66
75549;BME280;64133;56.002;37.208;2022-11-14T20:43:33;99825.39;;;-0.04;54.62
75549;BME280;64133;56.002;37.208;2022-11-14T20:48:39;99820.30;;;-0.07;54.18
75549;BME280;64133;56.002;37.208;2022-11-14T20:58:58;99811.41;;;-0.13;54.50
75549;BME280;64133;56.002;37.208;2022-11-14T21:04:03;99817.88;;;-0.13;54.61
75549;BME280;64133;56.002;37.208;2022-11-14T21:09:08;99811.70;;;-0.22;54.88
75549;BME280;64133;56.002;37.208;2022-11-14T21:14:13;99804.45;;;-0.11;54.58
75549;BME280;64133;56.002;37.208;2022-11-14T21:19:18;99817.85;;;-0.12;54.40
75549;BME280;64133;56.002;37.208;2022-11-14T21:24:23;99810.77;;;-0.20;54.78
75549;BME280;64133;56.002;37.208;2022-11-14T21:29:28;99804.75;;;-0.20;54.72
75549;BME280;64133;56.002;37.208;2022-11-14T21:34:33;99805.12;;;-0.33;55.09
75549;BME280;64133;56.002;37.208;2022-11-14T21:39:38;99799.96;;;-0.19;54.93
75549;BME280;64133;56.002;37.208;2022-11-14T21:44:43;99797.13;;;-0.25;55.04
75549;BME280;64133;56.002;37.208;2022-11-14T21:49:48;99788.52;;;-0.26;54.83
75549;BME280;64133;56.002;37.208;2022-11-14T21:54:54;99793.58;;;-0.22;54.95
75549;BME280;64133;56.002;37.208;2022-11-14T21:59:59;99784.33;;;-0.30;55.13
75549;BME280;64133;56.002;37.208;2022-11-14T22:05:04;99785.95;;;-0.27;54.83
75549;BME280;64133;56.002;37.208;2022-11-14T22:10:10;99773.55;;;-0.31;55.08
75549;BME280;64133;56.002;37.208;2022-11-14T22:15:15;99776.09;;;-0.42;54.83
75549;BME280;64133;56.002;37.208;2022-11-14T22:20:20;99766.13;;;-0.41;54.99
75549;BME280;64133;56.002;37.208;2022-11-14T22:25:26;99769.17;;;-0.42;54.85
75549;BME280;64133;56.002;37.208;2022-11-14T22:30:30;99771.14;;;-0.50;54.91
75549;BME280;64133;56.002;37.208;2022-11-14T22:36:02;99774.26;;;-0.54;54.75
75549;BME280;64133;56.002;37.208;2022-11-14T22:46:20;99770.16;;;-0.46;54.02
75549;BME280;64133;56.002;37.208;2022-11-14T22:51:25;99769.84;;;-0.50;54.32
75549;BME280;64133;56.002;37.208;2022-11-14T22:56:29;99762.39;;;-0.46;54.24
75549;BME280;64133;56.002;37.208;2022-11-14T23:01:34;99758.56;;;-0.47;54.18
75549;BME280;64133;56.002;37.208;2022-11-14T23:06:39;99752.63;;;-0.51;54.06
75549;BME280;64133;56.002;37.208;2022-11-14T23:11:44;99750.97;;;-0.54;54.65
75549;BME280;64133;56.002;37.208;2022-11-14T23:16:49;99744.17;;;-0.56;55.15
75549;BME280;64133;56.002;37.208;2022-11-14T23:21:54;99745.62;;;-0.62;55.22
75549;BME280;64133;56.002;37.208;2022-11-14T23:26:58;99731.45;;;-0.64;55.43
75549;BME280;64133;56.002;37.208;2022-11-14T23:32:04;99730.70;;;-0.67;55.99
75549;BME280;64133;56.002;37.208;2022-11-14T23:37:09;99716.75;;;-0.77;56.48
75549;BME280;64133;56.002;37.208;2022-11-14T23:42:13;99720.04;;;-0.71;56.47
75549;BME280;64133;56.002;37.208;2022-11-14T23:47:18;99724.13;;;-0.78;56.70
75549;BME280;64133;56.002;37.208;2022-11-14T23:52:23;99727.63;;;-0.80;56.80
75549;BME280;64133;56.002;37.208;2022-11-14T23:57:28;99731.88;;;-0.78;57.01
